sensor_id;sensor_type;location;lat;lon;timestamp;P1;durP1;ratioP1;P2;durP2;ratioP2
22843;SDS011;11588;51.178;4.852;2023-03-21T00:02:02;24.52;;;10.85;;
22843;SDS011;11588;51.178;4.852;2023-03-21T00:04:28;18.63;;;9.82;;
22843;SDS011;11588;51.178;4.852;2023-03-21T00:06:55;19.63;;;9.90;;
22843;SDS011;11588;51.178;4.852;2023-03-21T00:09:22;19.17;;;10.52;;
22843;SDS011;11588;51.178;4.852;2023-03-21T00:11:49;20.58;;;10.00;;
22843;SDS011;11588;51.178;4.852;2023-03-21T00:14:15;15.25;;;9.75;;
22843;SDS011;11588;51.178;4.852;2023-03-21T00:16:44;23.17;;;10.88;;
22843;SDS011;11588;51.178;4.852;2023-03-21T00:19:10;18.50;;;9.85;;
22843;SDS011;11588;51.178;4.852;2023-03-21T00:21:38;19.65;;;10.85;;
22843;SDS011;11588;51.178;4.852;2023-03-21T00:24:07;18.20;;;10.85;;
22843;SDS011;11588;51.178;4.852;2023-03-21T00:26:34;18.75;;;9.88;;
22843;SDS011;11588;51.178;4.852;2023-03-21T00:29:01;17.60;;;9.52;;
22843;SDS011;11588;51.178;4.852;2023-03-21T00:31:26;19.30;;;9.68;;
22843;SDS011;11588;51.178;4.852;2023-03-21T00:33:53;18.85;;;9.55;;
22843;SDS011;11588;51.178;4.852;2023-03-21T00:36:19;14.52;;;8.75;;
22843;SDS011;11588;51.178;4.852;2023-03-21T00:38:46;15.60;;;9.55;;
22843;SDS011;11588;51.178;4.852;2023-03-21T00:41:14;15.82;;;8.07;;
22843;SDS011;11588;51.178;4.852;2023-03-21T00:43:40;15.20;;;8.48;;
22843;SDS011;11588;51.178;4.852;2023-03-21T00:46:09;16.58;;;8.88;;
22843;SDS011;11588;51.178;4.852;2023-03-21T00:48:34;14.07;;;9.35;;
22843;SDS011;11588;51.178;4.852;2023-03-21T00:51:01;20.65;;;9.50;;
22843;SDS011;11588;51.178;4.852;2023-03-21T00:53:27;17.75;;;10.23;;
22843;SDS011;11588;51.178;4.852;2023-03-21T00:55:54;17.48;;;10.05;;
22843;SDS011;11588;51.178;4.852;2023-03-21T00:58:20;22.60;;;10.65;;
22843;SDS011;11588;51.178;4.852;2023-03-21T01:00:47;19.15;;;10.40;;
22843;SDS011;11588;51.178;4.852;2023-03-21T01:03:14;18.92;;;9.95;;
22843;SDS011;11588;51.178;4.852;2023-03-21T01:05:43;17.98;;;10.60;;
22843;SDS011;11588;51.178;4.852;2023-03-21T01:08:31;15.52;;;9.85;;
22843;SDS011;11588;51.178;4.852;2023-03-21T01:11:00;18.75;;;10.35;;
22843;SDS011;11588;51.178;4.852;2023-03-21T01:13:27;17.80;;;9.88;;
22843;SDS011;11588;51.178;4.852;2023-03-21T01:15:54;21.58;;;10.32;;
22843;SDS011;11588;51.178;4.852;2023-03-21T01:18:21;18.77;;;10.70;;
22843;SDS011;11588;51.178;4.852;2023-03-21T01:20:53;19.52;;;9.48;;
22843;SDS011;11588;51.178;4.852;2023-03-21T01:23:20;16.52;;;10.35;;
22843;SDS011;11588;51.178;4.852;2023-03-21T01:25:47;20.23;;;9.93;;
22843;SDS011;11588;51.178;4.852;2023-03-21T01:28:16;16.60;;;9.60;;
22843;SDS011;11588;51.178;4.852;2023-03-21T01:30:45;17.02;;;9.52;;
22843;SDS011;11588;51.178;4.852;2023-03-21T01:33:11;15.18;;;9.20;;
22843;SDS011;11588;51.178;4.852;2023-03-21T01:35:37;18.30;;;9.52;;
22843;SDS011;11588;51.178;4.852;2023-03-21T01:38:03;21.02;;;9.38;;
22843;SDS011;11588;51.178;4.852;2023-03-21T01:40:31;17.38;;;9.43;;
22843;SDS011;11588;51.178;4.852;2023-03-21T01:42:58;15.85;;;9.20;;
22843;SDS011;11588;51.178;4.852;2023-03-21T01:48:04;16.15;;;9.43;;
22843;SDS011;11588;51.178;4.852;2023-03-21T01:50:31;17.58;;;9.25;;
22843;SDS011;11588;51.178;4.852;2023-03-21T01:52:58;20.70;;;10.30;;
22843;SDS011;11588;51.178;4.852;2023-03-21T01:55:26;20.08;;;10.13;;
22843;SDS011;11588;51.178;4.852;2023-03-21T01:57:53;15.57;;;8.93;;
22843;SDS011;11588;51.178;4.852;2023-03-21T02:00:21;17.52;;;9.40;;
22843;SDS011;11588;51.178;4.852;2023-03-21T02:02:52;17.30;;;9.50;;
22843;SDS011;11588;51.178;4.852;2023-03-21T02:05:29;21.38;;;9.30;;
22843;SDS011;11588;51.178;4.852;2023-03-21T02:07:59;20.10;;;10.43;;
22843;SDS011;11588;51.178;4.852;2023-03-21T02:10:27;19.30;;;10.15;;
22843;SDS011;11588;51.178;4.852;2023-03-21T02:12:59;18.80;;;11.02;;
22843;SDS011;11588;51.178;4.852;2023-03-21T02:20:48;19.23;;;10.15;;
22843;SDS011;11588;51.178;4.852;2023-03-21T02:28:25;21.23;;;10.10;;
22843;SDS011;11588;51.178;4.852;2023-03-21T02:33:30;17.35;;;9.25;;
22843;SDS011;11588;51.178;4.852;2023-03-21T02:38:42;18.25;;;9.60;;
22843;SDS011;11588;51.178;4.852;2023-03-21T02:41:16;19.50;;;9.18;;
22843;SDS011;11588;51.178;4.852;2023-03-21T02:43:46;20.17;;;9.27;;
22843;SDS011;11588;51.178;4.852;2023-03-21T02:46:18;20.90;;;9.45;;
22843;SDS011;11588;51.178;4.852;2023-03-21T02:48:51;19.17;;;9.40;;
22843;SDS011;11588;51.178;4.852;2023-03-21T02:51:22;16.55;;;9.23;;
22843;SDS011;11588;51.178;4.852;2023-03-21T02:56:30;15.80;;;8.40;;
22843;SDS011;11588;51.178;4.852;2023-03-21T02:58:58;18.90;;;8.57;;
22843;SDS011;11588;51.178;4.852;2023-03-21T03:01:28;16.92;;;8.82;;
22843;SDS011;11588;51.178;4.852;2023-03-21T03:03:55;19.75;;;9.60;;
22843;SDS011;11588;51.178;4.852;2023-03-21T03:06:25;18.20;;;9.13;;
22843;SDS011;11588;51.178;4.852;2023-03-21T03:19:23;20.77;;;8.95;;
22843;SDS011;11588;51.178;4.852;2023-03-21T03:21:55;21.02;;;8.20;;
22843;SDS011;11588;51.178;4.852;2023-03-21T03:24:25;19.27;;;9.50;;
22843;SDS011;11588;51.178;4.852;2023-03-21T03:26:57;17.85;;;8.50;;
22843;SDS011;11588;51.178;4.852;2023-03-21T03:29:25;18.98;;;8.77;;
22843;SDS011;11588;51.178;4.852;2023-03-21T03:31:55;18.10;;;8.93;;
22843;SDS011;11588;51.178;4.852;2023-03-21T03:34:23;17.25;;;8.55;;
22843;SDS011;11588;51.178;4.852;2023-03-21T03:36:53;19.15;;;8.38;;
22843;SDS011;11588;51.178;4.852;2023-03-21T03:39:22;20.50;;;8.65;;
22843;SDS011;11588;51.178;4.852;2023-03-21T03:41:53;19.60;;;8.70;;
22843;SDS011;11588;51.178;4.852;2023-03-21T03:44:20;21.55;;;8.68;;
22843;SDS011;11588;51.178;4.852;2023-03-21T03:46:51;19.92;;;9.02;;
22843;SDS011;11588;51.178;4.852;2023-03-21T03:49:20;18.15;;;8.05;;
22843;SDS011;11588;51.178;4.852;2023-03-21T03:51:49;19.60;;;8.45;;
22843;SDS011;11588;51.178;4.852;2023-03-21T03:54:18;19.88;;;9.18;;
22843;SDS011;11588;51.178;4.852;2023-03-21T03:56:49;20.48;;;9.10;;
22843;SDS011;11588;51.178;4.852;2023-03-21T03:59:16;18.58;;;8.27;;
22843;SDS011;11588;51.178;4.852;2023-03-21T04:01:52;21.00;;;7.68;;
22843;SDS011;11588;51.178;4.852;2023-03-21T04:04:21;17.15;;;7.93;;
22843;SDS011;11588;51.178;4.852;2023-03-21T04:06:54;18.02;;;8.05;;
22843;SDS011;11588;51.178;4.852;2023-03-21T04:09:20;17.23;;;7.88;;
22843;SDS011;11588;51.178;4.852;2023-03-21T04:11:48;19.75;;;7.80;;
22843;SDS011;11588;51.178;4.852;2023-03-21T04:14:15;20.52;;;8.23;;
22843;SDS011;11588;51.178;4.852;2023-03-21T04:16:42;16.70;;;7.55;;
22843;SDS011;11588;51.178;4.852;2023-03-21T04:19:08;15.43;;;7.60;;
22843;SDS011;11588;51.178;4.852;2023-03-21T04:21:35;17.42;;;7.28;;
22843;SDS011;11588;51.178;4.852;2023-03-21T04:24:02;20.48;;;8.23;;
22843;SDS011;11588;51.178;4.852;2023-03-21T04:26:29;18.05;;;7.60;;
22843;SDS011;11588;51.178;4.852;2023-03-21T04:28:58;20.85;;;7.93;;
22843;SDS011;11588;51.178;4.852;2023-03-21T04:31:25;16.23;;;7.68;;
22843;SDS011;11588;51.178;4.852;2023-03-21T04:33:56;19.20;;;7.60;;
22843;SDS011;11588;51.178;4.852;2023-03-21T04:36:25;17.88;;;7.25;;
22843;SDS011;11588;51.178;4.852;2023-03-21T04:38:58;16.25;;;7.03;;
22843;SDS011;11588;51.178;4.852;2023-03-21T04:41:27;17.00;;;6.78;;
22843;SDS011;11588;51.178;4.852;2023-03-21T04:43:54;18.55;;;7.78;;
22843;SDS011;11588;51.178;4.852;2023-03-21T04:46:21;19.13;;;8.23;;
22843;SDS011;11588;51.178;4.852;2023-03-21T04:48:48;18.63;;;7.88;;
22843;SDS011;11588;51.178;4.852;2023-03-21T04:51:15;14.73;;;7.10;;
22843;SDS011;11588;51.178;4.852;2023-03-21T04:53:42;16.52;;;7.45;;
22843;SDS011;11588;51.178;4.852;2023-03-21T04:56:15;19.10;;;7.97;;
22843;SDS011;11588;51.178;4.852;2023-03-21T04:58:41;21.38;;;8.02;;
22843;SDS011;11588;51.178;4.852;2023-03-21T05:01:08;19.10;;;7.25;;
22843;SDS011;11588;51.178;4.852;2023-03-21T05:03:35;18.25;;;7.80;;
22843;SDS011;11588;51.178;4.852;2023-03-21T05:06:08;17.10;;;8.38;;
22843;SDS011;11588;51.178;4.852;2023-03-21T05:08:35;17.67;;;8.38;;
22843;SDS011;11588;51.178;4.852;2023-03-21T05:11:02;21.38;;;8.13;;
22843;SDS011;11588;51.178;4.852;2023-03-21T05:13:29;22.80;;;9.10;;
22843;SDS011;11588;51.178;4.852;2023-03-21T05:15:56;20.75;;;8.18;;
22843;SDS011;11588;51.178;4.852;2023-03-21T05:18:22;18.85;;;9.00;;
22843;SDS011;11588;51.178;4.852;2023-03-21T05:20:50;19.08;;;8.88;;
22843;SDS011;11588;51.178;4.852;2023-03-21T05:23:20;20.90;;;8.93;;
22843;SDS011;11588;51.178;4.852;2023-03-21T05:25:47;22.08;;;9.82;;
22843;SDS011;11588;51.178;4.852;2023-03-21T05:28:14;22.02;;;9.60;;
22843;SDS011;11588;51.178;4.852;2023-03-21T05:30:51;20.90;;;9.80;;
22843;SDS011;11588;51.178;4.852;2023-03-21T05:33:21;23.02;;;10.63;;
22843;SDS011;11588;51.178;4.852;2023-03-21T05:35:49;20.33;;;9.48;;
22843;SDS011;11588;51.178;4.852;2023-03-21T05:38:16;19.77;;;9.38;;
22843;SDS011;11588;51.178;4.852;2023-03-21T05:40:47;21.33;;;9.57;;
22843;SDS011;11588;51.178;4.852;2023-03-21T05:43:13;23.52;;;10.80;;
22843;SDS011;11588;51.178;4.852;2023-03-21T05:45:40;22.17;;;10.30;;
22843;SDS011;11588;51.178;4.852;2023-03-21T05:48:06;26.20;;;10.55;;
22843;SDS011;11588;51.178;4.852;2023-03-21T05:50:33;25.48;;;11.73;;
22843;SDS011;11588;51.178;4.852;2023-03-21T05:53:03;24.33;;;11.15;;
22843;SDS011;11588;51.178;4.852;2023-03-21T05:55:34;22.88;;;10.57;;
22843;SDS011;11588;51.178;4.852;2023-03-21T05:58:00;23.67;;;10.32;;
22843;SDS011;11588;51.178;4.852;2023-03-21T06:00:27;23.75;;;11.38;;
22843;SDS011;11588;51.178;4.852;2023-03-21T06:02:58;20.80;;;10.88;;
22843;SDS011;11588;51.178;4.852;2023-03-21T06:05:24;19.60;;;11.15;;
22843;SDS011;11588;51.178;4.852;2023-03-21T06:07:51;25.15;;;10.68;;
22843;SDS011;11588;51.178;4.852;2023-03-21T06:10:17;23.00;;;12.07;;
22843;SDS011;11588;51.178;4.852;2023-03-21T06:12:47;26.98;;;12.25;;
22843;SDS011;11588;51.178;4.852;2023-03-21T06:15:13;21.73;;;12.32;;
22843;SDS011;11588;51.178;4.852;2023-03-21T06:17:41;27.33;;;12.18;;
22843;SDS011;11588;51.178;4.852;2023-03-21T06:20:08;25.98;;;10.80;;
22843;SDS011;11588;51.178;4.852;2023-03-21T06:22:34;17.45;;;10.02;;
22843;SDS011;11588;51.178;4.852;2023-03-21T06:25:02;21.85;;;10.68;;
22843;SDS011;11588;51.178;4.852;2023-03-21T06:27:29;23.17;;;11.05;;
22843;SDS011;11588;51.178;4.852;2023-03-21T06:29:56;25.02;;;12.70;;
22843;SDS011;11588;51.178;4.852;2023-03-21T06:32:23;20.25;;;11.60;;
22843;SDS011;11588;51.178;4.852;2023-03-21T06:34:50;27.08;;;12.68;;
22843;SDS011;11588;51.178;4.852;2023-03-21T06:37:17;28.98;;;14.00;;
22843;SDS011;11588;51.178;4.852;2023-03-21T06:39:44;31.95;;;13.27;;
22843;SDS011;11588;51.178;4.852;2023-03-21T06:42:12;28.48;;;13.10;;
22843;SDS011;11588;51.178;4.852;2023-03-21T06:44:39;27.83;;;14.20;;
22843;SDS011;11588;51.178;4.852;2023-03-21T06:47:06;33.47;;;14.88;;
22843;SDS011;11588;51.178;4.852;2023-03-21T06:49:33;35.47;;;16.05;;
22843;SDS011;11588;51.178;4.852;2023-03-21T06:51:59;32.83;;;15.65;;
22843;SDS011;11588;51.178;4.852;2023-03-21T06:54:26;30.90;;;15.23;;
22843;SDS011;11588;51.178;4.852;2023-03-21T06:56:53;27.00;;;14.45;;
22843;SDS011;11588;51.178;4.852;2023-03-21T06:59:20;36.50;;;15.30;;
22843;SDS011;11588;51.178;4.852;2023-03-21T07:01:47;35.60;;;15.18;;
22843;SDS011;11588;51.178;4.852;2023-03-21T07:04:13;29.55;;;13.77;;
22843;SDS011;11588;51.178;4.852;2023-03-21T07:06:41;30.35;;;12.68;;
22843;SDS011;11588;51.178;4.852;2023-03-21T07:09:06;26.50;;;13.55;;
22843;SDS011;11588;51.178;4.852;2023-03-21T07:11:34;25.42;;;12.95;;
22843;SDS011;11588;51.178;4.852;2023-03-21T07:14:01;27.80;;;12.57;;
22843;SDS011;11588;51.178;4.852;2023-03-21T07:16:28;26.85;;;12.20;;
22843;SDS011;11588;51.178;4.852;2023-03-21T07:18:54;24.85;;;11.77;;
22843;SDS011;11588;51.178;4.852;2023-03-21T07:21:21;25.75;;;12.30;;
22843;SDS011;11588;51.178;4.852;2023-03-21T07:23:48;25.35;;;11.25;;
22843;SDS011;11588;51.178;4.852;2023-03-21T07:26:15;24.80;;;10.98;;
22843;SDS011;11588;51.178;4.852;2023-03-21T07:28:43;27.48;;;11.40;;
22843;SDS011;11588;51.178;4.852;2023-03-21T07:31:11;26.27;;;11.50;;
22843;SDS011;11588;51.178;4.852;2023-03-21T07:33:39;24.60;;;10.02;;
22843;SDS011;11588;51.178;4.852;2023-03-21T07:36:08;26.60;;;11.40;;
22843;SDS011;11588;51.178;4.852;2023-03-21T07:38:35;26.10;;;12.35;;
22843;SDS011;11588;51.178;4.852;2023-03-21T07:41:02;18.33;;;11.07;;
22843;SDS011;11588;51.178;4.852;2023-03-21T07:43:28;19.33;;;10.02;;
22843;SDS011;11588;51.178;4.852;2023-03-21T07:45:55;20.02;;;10.90;;
22843;SDS011;11588;51.178;4.852;2023-03-21T07:48:22;20.80;;;10.32;;
22843;SDS011;11588;51.178;4.852;2023-03-21T07:50:49;22.63;;;10.93;;
22843;SDS011;11588;51.178;4.852;2023-03-21T07:53:16;21.55;;;10.27;;
22843;SDS011;11588;51.178;4.852;2023-03-21T07:55:41;19.67;;;10.40;;
22843;SDS011;11588;51.178;4.852;2023-03-21T07:58:09;22.20;;;10.30;;
22843;SDS011;11588;51.178;4.852;2023-03-21T08:00:35;17.33;;;9.63;;
22843;SDS011;11588;51.178;4.852;2023-03-21T08:03:02;21.10;;;9.57;;
22843;SDS011;11588;51.178;4.852;2023-03-21T08:05:32;14.80;;;8.90;;
22843;SDS011;11588;51.178;4.852;2023-03-21T08:08:02;24.08;;;10.07;;
22843;SDS011;11588;51.178;4.852;2023-03-21T08:10:29;16.65;;;10.15;;
22843;SDS011;11588;51.178;4.852;2023-03-21T08:12:55;23.15;;;10.15;;
22843;SDS011;11588;51.178;4.852;2023-03-21T08:15:22;15.93;;;9.23;;
22843;SDS011;11588;51.178;4.852;2023-03-21T08:17:49;18.80;;;9.27;;
22843;SDS011;11588;51.178;4.852;2023-03-21T08:20:17;18.98;;;9.98;;
22843;SDS011;11588;51.178;4.852;2023-03-21T08:22:44;22.35;;;12.43;;
22843;SDS011;11588;51.178;4.852;2023-03-21T08:25:11;18.52;;;11.07;;
22843;SDS011;11588;51.178;4.852;2023-03-21T08:27:39;18.48;;;9.23;;
22843;SDS011;11588;51.178;4.852;2023-03-21T08:30:07;22.05;;;8.55;;
22843;SDS011;11588;51.178;4.852;2023-03-21T08:32:33;20.27;;;8.48;;
22843;SDS011;11588;51.178;4.852;2023-03-21T08:34:59;18.92;;;8.90;;
22843;SDS011;11588;51.178;4.852;2023-03-21T08:37:27;15.48;;;7.22;;
22843;SDS011;11588;51.178;4.852;2023-03-21T08:39:54;18.15;;;7.75;;
22843;SDS011;11588;51.178;4.852;2023-03-21T08:42:21;21.33;;;7.45;;
22843;SDS011;11588;51.178;4.852;2023-03-21T08:44:48;15.05;;;7.28;;
22843;SDS011;11588;51.178;4.852;2023-03-21T08:47:14;17.83;;;7.28;;
22843;SDS011;11588;51.178;4.852;2023-03-21T08:49:41;12.55;;;7.00;;
22843;SDS011;11588;51.178;4.852;2023-03-21T08:52:10;19.30;;;7.57;;
22843;SDS011;11588;51.178;4.852;2023-03-21T08:54:38;13.80;;;7.15;;
22843;SDS011;11588;51.178;4.852;2023-03-21T08:57:06;21.88;;;6.95;;
22843;SDS011;11588;51.178;4.852;2023-03-21T08:59:33;18.50;;;7.03;;
22843;SDS011;11588;51.178;4.852;2023-03-21T09:02:00;17.63;;;7.50;;
22843;SDS011;11588;51.178;4.852;2023-03-21T09:04:26;18.23;;;6.38;;
22843;SDS011;11588;51.178;4.852;2023-03-21T09:06:53;12.35;;;6.20;;
22843;SDS011;11588;51.178;4.852;2023-03-21T09:09:21;12.27;;;5.93;;
22843;SDS011;11588;51.178;4.852;2023-03-21T09:11:47;13.77;;;6.88;;
22843;SDS011;11588;51.178;4.852;2023-03-21T09:14:14;14.23;;;6.82;;
22843;SDS011;11588;51.178;4.852;2023-03-21T09:16:40;12.55;;;6.30;;
22843;SDS011;11588;51.178;4.852;2023-03-21T09:19:07;13.50;;;5.50;;
22843;SDS011;11588;51.178;4.852;2023-03-21T09:21:34;12.40;;;5.78;;
22843;SDS011;11588;51.178;4.852;2023-03-21T09:24:01;13.02;;;5.63;;
22843;SDS011;11588;51.178;4.852;2023-03-21T09:26:27;12.75;;;5.40;;
22843;SDS011;11588;51.178;4.852;2023-03-21T09:28:55;10.98;;;5.15;;
22843;SDS011;11588;51.178;4.852;2023-03-21T09:31:23;12.57;;;5.90;;
22843;SDS011;11588;51.178;4.852;2023-03-21T09:33:51;9.20;;;4.75;;
22843;SDS011;11588;51.178;4.852;2023-03-21T09:36:21;11.55;;;5.47;;
22843;SDS011;11588;51.178;4.852;2023-03-21T09:38:50;12.07;;;5.43;;
22843;SDS011;11588;51.178;4.852;2023-03-21T09:41:20;16.63;;;5.57;;
22843;SDS011;11588;51.178;4.852;2023-03-21T09:43:56;13.82;;;5.18;;
22843;SDS011;11588;51.178;4.852;2023-03-21T09:46:39;14.23;;;5.30;;
22843;SDS011;11588;51.178;4.852;2023-03-21T09:49:12;12.27;;;5.00;;
22843;SDS011;11588;51.178;4.852;2023-03-21T09:51:43;11.40;;;4.75;;
22843;SDS011;11588;51.178;4.852;2023-03-21T09:54:13;11.95;;;5.25;;
22843;SDS011;11588;51.178;4.852;2023-03-21T09:56:44;12.27;;;4.80;;
22843;SDS011;11588;51.178;4.852;2023-03-21T09:59:17;13.13;;;5.07;;
22843;SDS011;11588;51.178;4.852;2023-03-21T10:01:48;11.85;;;4.90;;
22843;SDS011;11588;51.178;4.852;2023-03-21T10:04:15;11.15;;;5.82;;
22843;SDS011;11588;51.178;4.852;2023-03-21T10:06:44;9.80;;;4.70;;
22843;SDS011;11588;51.178;4.852;2023-03-21T10:09:14;9.20;;;5.00;;
22843;SDS011;11588;51.178;4.852;2023-03-21T10:11:42;12.00;;;5.13;;
22843;SDS011;11588;51.178;4.852;2023-03-21T10:17:00;10.52;;;4.90;;
22843;SDS011;11588;51.178;4.852;2023-03-21T10:19:32;16.15;;;5.70;;
22843;SDS011;11588;51.178;4.852;2023-03-21T10:21:58;12.30;;;5.22;;
22843;SDS011;11588;51.178;4.852;2023-03-21T10:24:25;9.68;;;4.80;;
22843;SDS011;11588;51.178;4.852;2023-03-21T10:26:53;9.35;;;4.85;;
22843;SDS011;11588;51.178;4.852;2023-03-21T10:29:21;22.52;;;5.15;;
22843;SDS011;11588;51.178;4.852;2023-03-21T10:31:49;9.13;;;4.68;;
22843;SDS011;11588;51.178;4.852;2023-03-21T10:34:25;13.02;;;5.78;;
22843;SDS011;11588;51.178;4.852;2023-03-21T10:36:57;12.52;;;4.60;;
22843;SDS011;11588;51.178;4.852;2023-03-21T10:39:31;12.00;;;5.13;;
22843;SDS011;11588;51.178;4.852;2023-03-21T10:41:59;12.18;;;4.93;;
22843;SDS011;11588;51.178;4.852;2023-03-21T10:44:30;10.27;;;5.30;;
22843;SDS011;11588;51.178;4.852;2023-03-21T10:47:03;13.07;;;5.15;;
22843;SDS011;11588;51.178;4.852;2023-03-21T10:49:31;12.55;;;5.05;;
22843;SDS011;11588;51.178;4.852;2023-03-21T10:51:58;13.05;;;5.40;;
22843;SDS011;11588;51.178;4.852;2023-03-21T10:54:28;11.80;;;5.18;;
22843;SDS011;11588;51.178;4.852;2023-03-21T10:56:56;10.05;;;4.95;;
22843;SDS011;11588;51.178;4.852;2023-03-21T10:59:23;13.95;;;6.15;;
22843;SDS011;11588;51.178;4.852;2023-03-21T11:01:51;13.23;;;5.78;;
22843;SDS011;11588;51.178;4.852;2023-03-21T11:04:23;11.75;;;4.95;;
22843;SDS011;11588;51.178;4.852;2023-03-21T11:07:02;14.95;;;4.97;;
22843;SDS011;11588;51.178;4.852;2023-03-21T11:12:12;10.68;;;5.15;;
22843;SDS011;11588;51.178;4.852;2023-03-21T11:14:43;13.68;;;5.78;;
22843;SDS011;11588;51.178;4.852;2023-03-21T11:19:47;10.70;;;5.38;;
22843;SDS011;11588;51.178;4.852;2023-03-21T11:22:21;10.68;;;4.78;;
22843;SDS011;11588;51.178;4.852;2023-03-21T11:24:50;11.77;;;4.85;;
22843;SDS011;11588;51.178;4.852;2023-03-21T11:27:18;12.23;;;5.15;;
22843;SDS011;11588;51.178;4.852;2023-03-21T11:29:47;10.38;;;4.50;;
22843;SDS011;11588;51.178;4.852;2023-03-21T11:34:56;12.05;;;4.72;;
22843;SDS011;11588;51.178;4.852;2023-03-21T11:39:53;14.40;;;4.72;;
22843;SDS011;11588;51.178;4.852;2023-03-21T11:42:24;12.05;;;5.03;;
22843;SDS011;11588;51.178;4.852;2023-03-21T11:44:58;12.18;;;5.05;;
22843;SDS011;11588;51.178;4.852;2023-03-21T11:47:32;13.00;;;4.90;;
22843;SDS011;11588;51.178;4.852;2023-03-21T11:49:59;12.73;;;5.40;;
22843;SDS011;11588;51.178;4.852;2023-03-21T11:52:30;11.57;;;5.20;;
22843;SDS011;11588;51.178;4.852;2023-03-21T11:57:43;11.90;;;5.45;;
22843;SDS011;11588;51.178;4.852;2023-03-21T12:05:49;9.90;;;4.97;;
22843;SDS011;11588;51.178;4.852;2023-03-21T12:16:17;8.75;;;4.85;;
22843;SDS011;11588;51.178;4.852;2023-03-21T12:32:02;11.63;;;6.03;;
22843;SDS011;11588;51.178;4.852;2023-03-21T12:40:11;59.35;;;9.45;;
22843;SDS011;11588;51.178;4.852;2023-03-21T12:45:16;7.63;;;5.43;;
22843;SDS011;11588;51.178;4.852;2023-03-21T12:47:48;69.50;;;11.48;;
22843;SDS011;11588;51.178;4.852;2023-03-21T12:50:21;13.45;;;6.13;;
22843;SDS011;11588;51.178;4.852;2023-03-21T12:52:53;16.88;;;6.50;;
22843;SDS011;11588;51.178;4.852;2023-03-21T12:55:21;8.80;;;5.03;;
22843;SDS011;11588;51.178;4.852;2023-03-21T13:00:20;12.30;;;5.47;;
22843;SDS011;11588;51.178;4.852;2023-03-21T13:02:54;13.05;;;5.60;;
22843;SDS011;11588;51.178;4.852;2023-03-21T13:05:34;10.77;;;5.55;;
22843;SDS011;11588;51.178;4.852;2023-03-21T13:10:29;10.27;;;5.90;;
22843;SDS011;11588;51.178;4.852;2023-03-21T13:18:20;13.45;;;5.85;;
22843;SDS011;11588;51.178;4.852;2023-03-21T13:20:53;10.00;;;5.75;;
22843;SDS011;11588;51.178;4.852;2023-03-21T13:23:24;12.55;;;5.78;;
22843;SDS011;11588;51.178;4.852;2023-03-21T13:26:00;11.10;;;5.13;;
22843;SDS011;11588;51.178;4.852;2023-03-21T13:28:32;12.15;;;5.72;;
22843;SDS011;11588;51.178;4.852;2023-03-21T13:31:14;8.02;;;5.03;;
22843;SDS011;11588;51.178;4.852;2023-03-21T13:33:48;10.85;;;5.00;;
22843;SDS011;11588;51.178;4.852;2023-03-21T13:36:21;12.77;;;5.45;;
22843;SDS011;11588;51.178;4.852;2023-03-21T13:38:59;10.27;;;5.90;;
22843;SDS011;11588;51.178;4.852;2023-03-21T13:41:30;9.43;;;5.35;;
22843;SDS011;11588;51.178;4.852;2023-03-21T13:52:00;12.15;;;5.28;;
22843;SDS011;11588;51.178;4.852;2023-03-21T13:54:27;13.63;;;5.38;;
22843;SDS011;11588;51.178;4.852;2023-03-21T13:57:03;13.30;;;5.93;;
22843;SDS011;11588;51.178;4.852;2023-03-21T14:02:22;10.63;;;5.20;;
22843;SDS011;11588;51.178;4.852;2023-03-21T14:04:54;8.20;;;4.88;;
22843;SDS011;11588;51.178;4.852;2023-03-21T14:07:25;10.57;;;5.88;;
22843;SDS011;11588;51.178;4.852;2023-03-21T14:09:53;11.45;;;5.35;;
22843;SDS011;11588;51.178;4.852;2023-03-21T14:12:26;12.73;;;6.93;;
22843;SDS011;11588;51.178;4.852;2023-03-21T14:14:57;7.38;;;5.43;;
22843;SDS011;11588;51.178;4.852;2023-03-21T14:17:32;16.95;;;7.45;;
22843;SDS011;11588;51.178;4.852;2023-03-21T14:20:07;10.85;;;5.50;;
22843;SDS011;11588;51.178;4.852;2023-03-21T14:22:39;13.60;;;6.32;;
22843;SDS011;11588;51.178;4.852;2023-03-21T14:25:07;12.20;;;6.47;;
22843;SDS011;11588;51.178;4.852;2023-03-21T14:27:41;11.75;;;5.22;;
22843;SDS011;11588;51.178;4.852;2023-03-21T14:30:19;10.40;;;5.35;;
22843;SDS011;11588;51.178;4.852;2023-03-21T14:32:48;13.38;;;5.95;;
22843;SDS011;11588;51.178;4.852;2023-03-21T14:35:20;10.88;;;6.13;;
22843;SDS011;11588;51.178;4.852;2023-03-21T14:37:46;10.82;;;5.88;;
22843;SDS011;11588;51.178;4.852;2023-03-21T14:40:18;10.50;;;5.95;;
22843;SDS011;11588;51.178;4.852;2023-03-21T14:42:47;10.65;;;5.93;;
22843;SDS011;11588;51.178;4.852;2023-03-21T14:45:16;10.32;;;6.32;;
22843;SDS011;11588;51.178;4.852;2023-03-21T14:50:25;12.50;;;6.72;;
22843;SDS011;11588;51.178;4.852;2023-03-21T14:52:52;16.52;;;7.90;;
22843;SDS011;11588;51.178;4.852;2023-03-21T14:55:23;15.43;;;9.30;;
22843;SDS011;11588;51.178;4.852;2023-03-21T14:57:59;13.30;;;8.73;;
22843;SDS011;11588;51.178;4.852;2023-03-21T15:00:31;11.90;;;8.45;;
22843;SDS011;11588;51.178;4.852;2023-03-21T15:02:58;11.48;;;8.68;;
22843;SDS011;11588;51.178;4.852;2023-03-21T15:05:28;13.55;;;8.63;;
22843;SDS011;11588;51.178;4.852;2023-03-21T15:08:00;14.15;;;9.30;;
22843;SDS011;11588;51.178;4.852;2023-03-21T15:10:27;11.73;;;8.65;;
22843;SDS011;11588;51.178;4.852;2023-03-21T15:13:00;14.23;;;9.25;;
22843;SDS011;11588;51.178;4.852;2023-03-21T15:15:28;12.90;;;8.00;;
22843;SDS011;11588;51.178;4.852;2023-03-21T15:17:55;11.10;;;7.70;;
22843;SDS011;11588;51.178;4.852;2023-03-21T15:20:27;11.93;;;8.02;;
22843;SDS011;11588;51.178;4.852;2023-03-21T15:23:22;12.50;;;7.67;;
22843;SDS011;11588;51.178;4.852;2023-03-21T15:25:54;13.55;;;8.23;;
22843;SDS011;11588;51.178;4.852;2023-03-21T15:28:21;10.55;;;8.32;;
22843;SDS011;11588;51.178;4.852;2023-03-21T15:30:53;14.10;;;8.90;;
22843;SDS011;11588;51.178;4.852;2023-03-21T15:33:25;10.05;;;8.32;;
22843;SDS011;11588;51.178;4.852;2023-03-21T15:35:53;17.08;;;9.60;;
22843;SDS011;11588;51.178;4.852;2023-03-21T15:38:27;21.35;;;14.02;;
22843;SDS011;11588;51.178;4.852;2023-03-21T15:41:27;13.52;;;8.93;;
22843;SDS011;11588;51.178;4.852;2023-03-21T15:44:00;13.63;;;8.68;;
22843;SDS011;11588;51.178;4.852;2023-03-21T15:54:21;9.45;;;8.23;;
22843;SDS011;11588;51.178;4.852;2023-03-21T15:56:55;12.00;;;8.20;;
22843;SDS011;11588;51.178;4.852;2023-03-21T15:59:23;11.20;;;8.45;;
22843;SDS011;11588;51.178;4.852;2023-03-21T16:02:02;13.93;;;7.95;;
22843;SDS011;11588;51.178;4.852;2023-03-21T16:04:28;11.38;;;7.80;;
22843;SDS011;11588;51.178;4.852;2023-03-21T16:09:21;14.70;;;9.60;;
22843;SDS011;11588;51.178;4.852;2023-03-21T16:11:53;8.90;;;7.38;;
22843;SDS011;11588;51.178;4.852;2023-03-21T16:14:20;9.23;;;6.90;;
22843;SDS011;11588;51.178;4.852;2023-03-21T16:16:53;11.30;;;7.18;;
22843;SDS011;11588;51.178;4.852;2023-03-21T16:19:23;9.55;;;6.75;;
22843;SDS011;11588;51.178;4.852;2023-03-21T16:21:54;12.55;;;7.00;;
22843;SDS011;11588;51.178;4.852;2023-03-21T16:24:20;13.25;;;7.65;;
22843;SDS011;11588;51.178;4.852;2023-03-21T16:26:47;8.95;;;7.07;;
22843;SDS011;11588;51.178;4.852;2023-03-21T16:29:19;11.63;;;7.15;;
22843;SDS011;11588;51.178;4.852;2023-03-21T16:31:47;8.98;;;7.22;;
22843;SDS011;11588;51.178;4.852;2023-03-21T16:34:15;10.60;;;7.30;;
22843;SDS011;11588;51.178;4.852;2023-03-21T16:36:42;11.52;;;7.07;;
22843;SDS011;11588;51.178;4.852;2023-03-21T16:39:10;7.00;;;5.78;;
22843;SDS011;11588;51.178;4.852;2023-03-21T16:41:41;9.48;;;6.13;;